createdAt,value
2022-11-06T00:01:22.298Z,6.1
2022-11-06T00:03:27.650Z,5.3
2022-11-06T00:05:29.804Z,5.7
2022-11-06T00:07:31.835Z,5.3
2022-11-06T00:09:33.953Z,5.9
2022-11-06T00:11:36.099Z,7.7
2022-11-06T00:13:38.248Z,5.1
2022-11-06T00:15:40.402Z,5.1
2022-11-06T00:17:45.774Z,6.3
2022-11-06T00:19:47.920Z,6.2
2022-11-06T00:21:50.065Z,5.7
2022-11-06T00:23:52.186Z,4.9
2022-11-06T00:25:54.319Z,6.4
2022-11-06T00:27:56.379Z,5.8
2022-11-06T00:29:58.509Z,5.9
2022-11-06T00:32:03.881Z,5.5
2022-11-06T00:34:06.038Z,5.8
2022-11-06T00:36:08.214Z,3.8
2022-11-06T00:38:10.582Z,5
2022-11-06T00:40:12.477Z,5.1
2022-11-06T00:44:16.762Z,5
2022-11-06T00:46:22.274Z,5.9
2022-11-06T00:50:26.608Z,5.1
2022-11-06T00:51:29.268Z,5
2022-11-06T00:53:31.255Z,4.9
2022-11-06T00:55:33.399Z,5
2022-11-06T00:57:35.522Z,5.3
2022-11-06T00:59:40.924Z,5.3
2022-11-06T01:01:43.234Z,6.4
2022-11-06T01:03:45.219Z,5.2
2022-11-06T01:05:47.351Z,5.3
2022-11-06T01:07:49.491Z,4.5
2022-11-06T01:09:51.656Z,4.7
2022-11-06T01:12:12.462Z,4.6
2022-11-06T01:13:59.152Z,5.2
2022-11-06T01:16:01.324Z,5.3
2022-11-06T01:18:03.467Z,4.7
2022-11-06T01:20:05.617Z,5.1
2022-11-06T01:22:07.888Z,4.6
2022-11-06T01:24:09.970Z,5.9
2022-11-06T01:26:12.047Z,3.3
2022-11-06T01:28:17.424Z,5.5
2022-11-06T01:30:19.581Z,5.2
2022-11-06T01:32:21.822Z,5.2
2022-11-06T01:34:23.865Z,4.5
2022-11-06T01:36:25.995Z,3.4
2022-11-06T01:38:28.164Z,4.9
2022-11-06T01:40:30.282Z,4.9
2022-11-06T01:42:35.721Z,5
2022-11-06T01:44:37.821Z,4.7
2022-11-06T01:46:39.977Z,3.6
2022-11-06T01:49:08.848Z,4.2
2022-11-06T01:51:10.986Z,5.1
2022-11-06T01:53:13.125Z,3.9
2022-11-06T01:55:18.515Z,3.9
2022-11-06T01:57:20.559Z,4.1
2022-11-06T01:59:22.696Z,3
2022-11-06T02:01:24.959Z,3.3
2022-11-06T02:03:26.993Z,4.7
2022-11-06T02:09:36.659Z,3.1
2022-11-06T02:15:43.107Z,3.7
2022-11-06T02:17:45.279Z,4.9
2022-11-06T02:19:47.428Z,3.4
2022-11-06T02:21:49.581Z,3.5
2022-11-06T02:23:54.942Z,4.6
2022-11-06T02:25:57.083Z,3.5
2022-11-06T02:27:59.225Z,4.3
2022-11-06T02:30:01.378Z,3.2
2022-11-06T02:32:03.520Z,3.8
2022-11-06T02:34:05.837Z,3.9
2022-11-06T02:38:13.494Z,3.9
2022-11-06T02:40:15.318Z,3.3
2022-11-06T02:42:17.476Z,3.4
2022-11-06T02:43:20.158Z,3.9
2022-11-06T02:45:22.286Z,3.5
2022-11-06T02:47:24.427Z,3.4
2022-11-06T02:49:26.572Z,2.9
2022-11-06T02:51:31.973Z,3.5
2022-11-06T02:53:34.119Z,3.1
2022-11-06T02:55:36.265Z,3.3
2022-11-06T02:57:38.417Z,4.4
2022-11-06T02:59:40.558Z,3.3
2022-11-06T03:01:42.868Z,3.3
2022-11-06T03:03:44.831Z,3.7
2022-11-06T03:05:50.222Z,3
2022-11-06T03:07:52.365Z,2.7
2022-11-06T03:09:54.521Z,3
2022-11-06T03:11:56.661Z,2.9
2022-11-06T03:16:00.957Z,2.5
2022-11-06T03:20:08.457Z,3
2022-11-06T03:22:10.630Z,3.5
2022-11-06T03:28:17.077Z,2.7
2022-11-06T03:30:19.218Z,3.1
2022-11-06T03:32:21.368Z,3
2022-11-06T03:34:26.758Z,3
2022-11-06T03:36:28.900Z,2.5
2022-11-06T03:38:31.046Z,3.9
2022-11-06T03:41:35.858Z,2.8
2022-11-06T03:43:38.017Z,3.1
2022-11-06T03:45:40.157Z,2.6
2022-11-06T03:47:45.547Z,3.2
2022-11-06T03:49:47.689Z,2.6
2022-11-06T03:51:49.832Z,3.2
2022-11-06T03:53:52.000Z,2.7
2022-11-06T03:55:54.132Z,2.7
2022-11-06T03:57:56.268Z,3.1
2022-11-06T03:59:58.413Z,2.8
2022-11-06T04:02:03.778Z,2.8
2022-11-06T04:04:05.873Z,2.6
2022-11-06T04:06:08.026Z,2.7
2022-11-06T04:08:10.413Z,2.6
2022-11-06T04:10:12.310Z,1.7
2022-11-06T04:12:14.466Z,2.3
2022-11-06T04:14:16.595Z,3
2022-11-06T04:16:21.996Z,2.2
2022-11-06T04:18:24.142Z,2.2
2022-11-06T04:20:26.292Z,3
2022-11-06T04:22:28.429Z,2.7
2022-11-06T04:24:30.578Z,2.7
2022-11-06T04:26:32.708Z,1.9
2022-11-06T04:28:34.868Z,2.6
2022-11-06T04:30:40.238Z,4.2
2022-11-06T04:32:42.374Z,2.8
2022-11-06T04:34:44.545Z,2.7
2022-11-06T04:35:47.222Z,2.4
2022-11-06T04:37:49.373Z,2.4
2022-11-06T04:39:51.521Z,3
2022-11-06T04:43:59.042Z,2.4
2022-11-06T04:46:01.195Z,2.2
2022-11-06T04:48:03.337Z,2.8
2022-11-06T04:50:05.476Z,3
2022-11-06T04:52:07.539Z,2.1
2022-11-06T04:54:09.589Z,2.8
2022-11-06T04:56:11.726Z,2.1
2022-11-06T04:58:17.148Z,2.5
2022-11-06T05:00:19.274Z,2.7
2022-11-06T05:02:21.522Z,2.1
2022-11-06T05:04:23.586Z,2.1
2022-11-06T05:06:29.961Z,2.4
2022-11-06T05:08:27.865Z,2.5
2022-11-06T05:10:30.049Z,1.8
2022-11-06T05:12:35.579Z,2.9
2022-11-06T05:14:37.555Z,1.9
2022-11-06T05:16:39.727Z,1.8
2022-11-06T05:18:43.395Z,2.2
2022-11-06T05:20:45.518Z,2.6
2022-11-06T05:22:47.654Z,2.1
2022-11-06T05:24:49.689Z,2.2
2022-11-06T05:26:59.343Z,2.4
2022-11-06T05:28:57.244Z,2.8
2022-11-06T05:30:59.376Z,3.3
2022-11-06T05:33:28.265Z,2.1
2022-11-06T05:35:30.423Z,3
2022-11-06T05:37:32.580Z,2.3
2022-11-06T05:39:41.765Z,1.9
2022-11-06T05:41:40.106Z,2.8
2022-11-06T05:43:42.282Z,2.3
2022-11-06T05:45:44.451Z,2.1
2022-11-06T05:47:46.613Z,2.1
2022-11-06T05:49:48.741Z,3.5
2022-11-06T05:51:50.911Z,2.3
2022-11-06T05:53:56.319Z,2.2
2022-11-06T05:55:58.451Z,2.2
2022-11-06T05:58:00.619Z,3
2022-11-06T06:00:02.811Z,1.6
2022-11-06T06:02:05.067Z,3.5
2022-11-06T06:04:07.077Z,4
2022-11-06T06:06:09.221Z,2.2
2022-11-06T06:08:14.878Z,1.9
2022-11-06T06:10:16.790Z,1.9
2022-11-06T06:12:18.934Z,2.8
2022-11-06T06:14:21.080Z,3.5
2022-11-06T06:16:23.264Z,2.4
2022-11-06T06:18:25.412Z,2.7
2022-11-06T06:20:27.564Z,2.5
2022-11-06T06:22:32.839Z,2.6
2022-11-06T06:24:35.110Z,2
2022-11-06T06:26:37.151Z,1.7
2022-11-06T06:29:41.995Z,2.6
2022-11-06T06:31:44.047Z,2.4
2022-11-06T06:33:46.201Z,2.2
2022-11-06T06:35:51.595Z,1.6
2022-11-06T06:37:53.779Z,2.1
2022-11-06T06:39:55.918Z,1.7
2022-11-06T06:46:02.402Z,2.3
2022-11-06T06:48:04.540Z,2
2022-11-06T06:50:09.837Z,2.1
2022-11-06T06:52:11.983Z,3
2022-11-06T06:54:14.048Z,2.1
2022-11-06T06:56:16.169Z,2
2022-11-06T06:58:18.370Z,1.9
2022-11-06T07:00:20.366Z,2.7
2022-11-06T07:02:22.494Z,1.8
2022-11-06T07:04:27.705Z,2.1
2022-11-06T07:06:29.748Z,2.3
2022-11-06T07:08:31.895Z,2.9
2022-11-06T07:10:34.061Z,1.9
2022-11-06T07:12:36.210Z,2.7
2022-11-06T07:14:38.325Z,2.3
2022-11-06T07:16:40.381Z,2.1
2022-11-06T07:18:45.663Z,2.2
2022-11-06T07:20:47.813Z,2.4
2022-11-06T07:22:49.964Z,1.9
2022-11-06T07:28:01.638Z,2.8
2022-11-06T07:29:58.993Z,2
2022-11-06T07:36:08.683Z,2.4
2022-11-06T07:40:13.943Z,1.8
2022-11-06T07:44:18.246Z,1.8
2022-11-06T07:48:25.961Z,2
2022-11-06T07:50:28.030Z,1.8
2022-11-06T07:54:32.212Z,3.2
2022-11-06T07:56:34.273Z,2
2022-11-06T08:00:41.776Z,2.1
2022-11-06T08:02:43.927Z,2.3
2022-11-06T08:04:45.987Z,2
2022-11-06T08:06:48.048Z,2.3
2022-11-06T08:08:52.743Z,2.5
2022-11-06T08:10:52.270Z,1.7
2022-11-06T08:12:54.443Z,2.4
2022-11-06T08:14:59.825Z,2.2
2022-11-06T08:17:01.974Z,2
2022-11-06T08:19:04.141Z,2
2022-11-06T08:20:06.818Z,1.8
2022-11-06T08:22:08.924Z,1.3
2022-11-06T08:26:13.237Z,2.1
2022-11-06T08:28:18.623Z,1.2
2022-11-06T08:30:20.692Z,1.8
2022-11-06T08:32:22.846Z,1.9
2022-11-06T08:34:25.053Z,2.3
2022-11-06T08:36:27.120Z,1.6
2022-11-06T08:42:36.838Z,1.7
2022-11-06T08:44:38.996Z,1.9
2022-11-06T08:48:43.316Z,2.4
2022-11-06T08:50:45.492Z,1.8
2022-11-06T08:52:47.635Z,1.8
2022-11-06T08:54:49.814Z,2.5
2022-11-06T08:56:55.107Z,1.7
2022-11-06T08:58:57.278Z,2.2
2022-11-06T09:00:59.507Z,1.5
2022-11-06T09:03:01.604Z,1.4
2022-11-06T09:05:03.763Z,2.2
2022-11-06T09:07:05.949Z,2.1
2022-11-06T09:09:08.117Z,1.4
2022-11-06T09:11:13.519Z,2
2022-11-06T09:13:15.944Z,2
2022-11-06T09:15:17.637Z,1.5
2022-11-06T09:23:56.052Z,1.3
2022-11-06T09:25:58.126Z,2.2
2022-11-06T09:28:00.296Z,2.3
2022-11-06T09:30:02.367Z,1.6
2022-11-06T09:32:04.439Z,2
2022-11-06T09:34:06.616Z,2.2
2022-11-06T09:38:14.196Z,1.5
2022-11-06T09:40:16.332Z,2.1
2022-11-06T09:42:18.514Z,1.3
2022-11-06T09:44:20.685Z,2.3
2022-11-06T09:46:22.763Z,1.2
2022-11-06T09:48:24.940Z,1.6
2022-11-06T09:50:27.127Z,1.7
2022-11-06T09:52:32.434Z,1.9
2022-11-06T09:54:34.635Z,1.6
2022-11-06T09:56:36.846Z,1.4
2022-11-06T09:58:39.014Z,1.9
2022-11-06T10:00:41.215Z,1.4
2022-11-06T10:02:43.523Z,2
2022-11-06T10:04:45.541Z,1.3
2022-11-06T10:06:50.864Z,1.6
2022-11-06T10:08:53.042Z,1.2
2022-11-06T10:10:55.227Z,1.7
2022-11-06T10:11:57.936Z,2.1
2022-11-06T10:14:00.006Z,1.6
2022-11-06T10:16:02.178Z,1.9
2022-11-06T10:18:04.274Z,1.4
2022-11-06T10:20:09.485Z,17.7
2022-11-06T10:22:11.597Z,3.1
2022-11-06T10:24:13.750Z,4.7
2022-11-06T10:26:15.832Z,4.9
2022-11-06T10:28:18.034Z,1.9
2022-11-06T10:30:20.137Z,1.8
2022-11-06T10:32:22.197Z,1.3
2022-11-06T10:34:27.454Z,1.3
2022-11-06T10:38:31.822Z,1.3
2022-11-06T10:40:33.909Z,1.3
2022-11-06T10:42:38.345Z,1.2
2022-11-06T10:44:38.182Z,1.3
2022-11-06T10:46:40.259Z,1.7
2022-11-06T10:48:45.480Z,0.9
2022-11-06T10:50:47.680Z,1.5
2022-11-06T10:52:49.741Z,1.4
2022-11-06T10:54:51.841Z,1.3
2022-11-06T10:56:53.914Z,1.7
2022-11-06T10:58:56.016Z,1.7
2022-11-06T11:00:58.158Z,2
2022-11-06T11:03:03.435Z,2.2
2022-11-06T11:05:05.504Z,1.7
2022-11-06T11:07:07.601Z,1.4
2022-11-06T11:08:10.403Z,1.8
2022-11-06T11:10:13.851Z,2.2
2022-11-06T11:12:16.027Z,1.9
2022-11-06T11:16:23.323Z,2.6
2022-11-06T11:20:27.522Z,2.9
2022-11-06T11:22:32.964Z,1.7
2022-11-06T11:24:31.701Z,1.8
2022-11-06T11:26:33.800Z,1.4
2022-11-06T11:28:35.897Z,2.3
2022-11-06T11:30:41.115Z,1.4
2022-11-06T11:32:43.451Z,1.8
2022-11-06T11:34:50.176Z,1.5
2022-11-06T11:36:47.592Z,1.5
2022-11-06T11:38:49.700Z,1.4
2022-11-06T11:40:51.863Z,1.6
2022-11-06T11:42:53.991Z,1.5
2022-11-06T11:44:59.183Z,2
2022-11-06T11:47:01.923Z,1.9
2022-11-06T11:49:03.346Z,1.6
2022-11-06T11:51:05.446Z,1.8
2022-11-06T11:53:10.517Z,2.1
2022-11-06T11:55:09.613Z,2.3
2022-11-06T11:57:11.697Z,1.9
2022-11-06T11:59:16.913Z,1.8
2022-11-06T12:01:19.187Z,1
2022-11-06T12:03:21.218Z,1.3
2022-11-06T12:04:23.695Z,1.3
2022-11-06T12:06:25.794Z,2
2022-11-06T12:08:27.893Z,1.6
2022-11-06T12:12:35.186Z,1.6
2022-11-06T12:18:41.481Z,1.9
2022-11-06T12:20:43.520Z,2.8
2022-11-06T12:24:47.688Z,1.7
2022-11-06T12:28:55.002Z,1.8
2022-11-06T12:30:57.102Z,1.5
2022-11-06T12:32:59.200Z,1.8
2022-11-06T12:35:01.313Z,1.4
2022-11-06T12:37:03.365Z,1.8
2022-11-06T12:39:05.448Z,1.6
2022-11-06T12:41:10.698Z,2.3
2022-11-06T12:43:12.776Z,1.3
2022-11-06T12:45:14.893Z,1.5
2022-11-06T12:47:16.966Z,1.4
2022-11-06T12:49:19.075Z,1.4
2022-11-06T12:51:21.214Z,1.3
2022-11-06T12:53:23.265Z,1.8
2022-11-06T12:55:28.593Z,1.6
2022-11-06T12:57:30.685Z,2.7
2022-11-06T12:59:32.779Z,2
2022-11-06T13:02:01.715Z,1.7
2022-11-06T13:04:03.648Z,2.1
2022-11-06T13:06:10.340Z,1.5
2022-11-06T13:08:11.208Z,0.9
2022-11-06T13:10:13.057Z,1.2
2022-11-06T13:12:15.148Z,1.1
2022-11-06T13:14:17.255Z,0.9
2022-11-06T13:16:19.327Z,2.3
2022-11-06T13:18:21.509Z,1.6
2022-11-06T13:20:23.605Z,1.4
2022-11-06T13:24:31.002Z,1.7
2022-11-06T13:28:35.282Z,1.5
2022-11-06T13:30:37.360Z,1.5
2022-11-06T13:32:39.429Z,2.7
2022-11-06T13:34:41.567Z,1.9
2022-11-06T13:36:46.733Z,2.1
2022-11-06T13:38:48.832Z,1.1
2022-11-06T13:40:50.928Z,1.3
2022-11-06T13:44:55.326Z,1.4
2022-11-06T13:51:04.922Z,1.4
2022-11-06T13:53:07.005Z,1.6
2022-11-06T13:55:09.226Z,2.1
2022-11-06T13:56:12.065Z,1.2
2022-11-06T13:58:14.381Z,3.6
2022-11-06T14:00:16.186Z,2.3
2022-11-06T14:02:18.515Z,1.9
2022-11-06T14:04:23.793Z,1.4
2022-11-06T14:06:25.880Z,2.8
2022-11-06T14:08:27.958Z,1.8
2022-11-06T14:10:30.057Z,1.6
2022-11-06T14:12:32.140Z,1.2
2022-11-06T14:14:34.252Z,2.8
2022-11-06T14:16:36.397Z,1.6
2022-11-06T14:18:41.638Z,1.6
2022-11-06T14:20:43.803Z,1.8
2022-11-06T14:22:45.928Z,1.4
2022-11-06T14:24:48.095Z,1.1
2022-11-06T14:26:50.201Z,1.7
2022-11-06T14:28:52.347Z,1.7
2022-11-06T14:31:12.021Z,1.8
2022-11-06T14:32:59.759Z,1.7
2022-11-06T14:35:01.851Z,2.1
2022-11-06T14:37:04.037Z,1.2
2022-11-06T14:39:06.119Z,1.1
2022-11-06T14:41:08.188Z,1.5
2022-11-06T14:43:10.367Z,1.3
2022-11-06T14:45:12.556Z,1.2
2022-11-06T14:47:17.757Z,1.4
2022-11-06T14:49:19.867Z,1.8
2022-11-06T14:51:22.055Z,1.5
2022-11-06T14:52:24.759Z,1.2
2022-11-06T14:54:26.930Z,1.3
2022-11-06T14:56:29.107Z,1.3
2022-11-06T14:58:31.699Z,1
2022-11-06T15:00:37.075Z,2
2022-11-06T15:02:39.283Z,0.7
2022-11-06T15:04:41.424Z,0.9
2022-11-06T15:06:43.634Z,1
2022-11-06T15:08:45.704Z,1
2022-11-06T15:10:47.803Z,1.2
2022-11-06T15:12:49.978Z,0.9
2022-11-06T15:14:55.395Z,1
2022-11-06T15:16:57.579Z,1.4
2022-11-06T15:18:59.751Z,1.3
2022-11-06T15:21:01.941Z,1.1
2022-11-06T15:23:04.226Z,1.4
2022-11-06T15:25:06.242Z,0.7
2022-11-06T15:29:13.841Z,1.7
2022-11-06T15:31:16.018Z,1
2022-11-06T15:33:18.170Z,1.3
2022-11-06T15:35:20.346Z,1.3
2022-11-06T15:37:22.483Z,1.7
2022-11-06T15:39:24.711Z,1.6
2022-11-06T15:41:26.852Z,1.8
2022-11-06T15:43:32.231Z,1.9
2022-11-06T15:45:34.370Z,1.9
2022-11-06T15:47:36.534Z,1.9
2022-11-06T15:48:39.196Z,1.9
2022-11-06T15:50:41.368Z,1.5
2022-11-06T15:52:43.507Z,1.7
2022-11-06T15:54:45.630Z,1.4
2022-11-06T15:56:51.015Z,1.2
2022-11-06T15:58:53.156Z,1.7
2022-11-06T16:00:55.313Z,2.2
2022-11-06T16:02:57.593Z,2
2022-11-06T16:04:59.580Z,1.9
2022-11-06T16:07:01.722Z,2.1
2022-11-06T16:09:03.878Z,4.3
2022-11-06T16:11:13.123Z,2.7
2022-11-06T16:13:11.954Z,2.4
2022-11-06T16:15:13.509Z,1.7
2022-11-06T16:17:15.647Z,2.7
2022-11-06T16:19:17.775Z,1.9
2022-11-06T16:21:19.906Z,2
2022-11-06T16:23:24.331Z,2.4
2022-11-06T16:25:27.392Z,1.8
2022-11-06T16:27:29.529Z,2.2
2022-11-06T16:29:31.735Z,1.6
2022-11-06T16:31:33.776Z,2.3
2022-11-06T16:33:36.052Z,1.4
2022-11-06T16:35:38.039Z,2
2022-11-06T16:37:40.152Z,2.4
2022-11-06T16:39:49.149Z,2.7
2022-11-06T16:41:47.615Z,2.2
2022-11-06T16:43:49.886Z,2.2
2022-11-06T16:46:18.671Z,2.3
2022-11-06T16:48:20.796Z,2.4
2022-11-06T16:50:22.907Z,2.1
2022-11-06T16:52:28.259Z,2.5
2022-11-06T16:54:30.417Z,2.4
2022-11-06T16:56:32.531Z,1.8
2022-11-06T16:58:34.677Z,2.1
2022-11-06T17:00:36.800Z,2.1
2022-11-06T17:02:40.591Z,2
2022-11-06T17:04:42.574Z,2.1
2022-11-06T17:06:47.953Z,1.9
2022-11-06T17:08:51.476Z,2.4
2022-11-06T17:10:52.227Z,2
2022-11-06T17:12:54.332Z,1.4
2022-11-06T17:14:56.449Z,1.6
2022-11-06T17:16:58.606Z,1.8
2022-11-06T17:19:00.711Z,2.3
2022-11-06T17:21:06.055Z,2
2022-11-06T17:23:10.197Z,2.3
2022-11-06T17:25:10.322Z,1.8
2022-11-06T17:31:16.693Z,2.3
2022-11-06T17:33:18.851Z,2.6
2022-11-06T17:35:24.175Z,2
2022-11-06T17:37:26.284Z,3.1
2022-11-06T17:39:28.439Z,2.2
2022-11-06T17:40:31.119Z,2.2
2022-11-06T17:42:33.227Z,3.2
2022-11-06T17:44:35.337Z,2.8
2022-11-06T17:46:37.473Z,2.6
2022-11-06T17:48:42.825Z,4.4
2022-11-06T17:50:44.934Z,3.3
2022-11-06T17:52:47.070Z,3.1
2022-11-06T17:54:49.197Z,2.8
2022-11-06T17:56:51.464Z,2.7
2022-11-06T17:58:53.446Z,2.5
2022-11-06T18:05:03.029Z,3.3
2022-11-06T18:07:05.170Z,2.7
2022-11-06T18:09:07.292Z,2.7
2022-11-06T18:11:09.534Z,3.6
2022-11-06T18:13:11.517Z,3
2022-11-06T18:15:13.624Z,3
2022-11-06T18:17:18.988Z,3.3
2022-11-06T18:19:21.118Z,3.3
2022-11-06T18:21:23.265Z,3.2
2022-11-06T18:23:25.333Z,3.1
2022-11-06T18:25:27.490Z,3.2
2022-11-06T18:27:29.591Z,2.8
2022-11-06T18:29:31.706Z,3
2022-11-06T18:33:39.207Z,2.7
2022-11-06T18:35:41.306Z,2.6
2022-11-06T18:36:44.002Z,4.1
2022-11-06T18:38:46.077Z,3.2
2022-11-06T18:40:51.641Z,2.6
2022-11-06T18:42:50.350Z,2.6
2022-11-06T18:44:55.687Z,2.8
2022-11-06T18:46:57.812Z,4.3
2022-11-06T18:48:59.950Z,3
2022-11-06T18:51:02.073Z,3.2
2022-11-06T18:53:04.177Z,2.1
2022-11-06T18:55:06.318Z,3.2
2022-11-06T18:57:08.429Z,3.1
2022-11-06T18:59:13.799Z,3.8
2022-11-06T19:01:15.943Z,3
2022-11-06T19:03:18.032Z,3.6
2022-11-06T19:05:20.148Z,2.5
2022-11-06T19:13:31.888Z,3.2
2022-11-06T19:15:34.025Z,4.2
2022-11-06T19:17:36.142Z,3.2
2022-11-06T19:21:40.401Z,4.3
2022-11-06T19:23:42.510Z,3.7
2022-11-06T19:25:47.940Z,3.5
2022-11-06T19:27:50.002Z,3.8
2022-11-06T19:29:52.124Z,3.1
2022-11-06T19:31:54.237Z,3.8
2022-11-06T19:34:59.055Z,3.6
2022-11-06T19:37:01.158Z,3.5
2022-11-06T19:39:03.306Z,3.7
2022-11-06T19:41:08.646Z,4.5
2022-11-06T19:43:10.997Z,4.5
2022-11-06T19:45:12.887Z,5.2
2022-11-06T19:47:15.033Z,4.6
2022-11-06T19:49:17.146Z,3.3
2022-11-06T19:51:19.285Z,3.6
2022-11-06T19:53:21.409Z,4.1
2022-11-06T19:55:27.827Z,3.3
2022-11-06T19:57:30.552Z,3.6
2022-11-06T19:59:31.005Z,3.5
2022-11-06T20:01:33.263Z,3.4
2022-11-06T20:03:35.287Z,2.8
2022-11-06T20:05:37.392Z,4.2
2022-11-06T20:07:39.534Z,4.7
2022-11-06T20:09:44.893Z,4.7
2022-11-06T20:13:49.138Z,3.5
2022-11-06T20:21:57.648Z,4.6
2022-11-06T20:24:03.031Z,5.1
2022-11-06T20:26:05.181Z,5.2
2022-11-06T20:28:07.272Z,5.1
2022-11-06T20:30:36.160Z,5.2
2022-11-06T20:32:38.294Z,5.1
2022-11-06T20:34:40.425Z,4.3
2022-11-06T20:36:45.789Z,4.8
2022-11-06T20:38:47.910Z,4.5
2022-11-06T20:40:50.029Z,4.9
2022-11-06T20:42:52.161Z,5
2022-11-06T20:44:54.289Z,5.4
2022-11-06T20:46:56.422Z,4.8
2022-11-06T20:48:58.557Z,4.4
2022-11-06T20:51:03.912Z,5
2022-11-06T20:53:06.047Z,5
2022-11-06T20:55:08.187Z,5
2022-11-06T20:57:10.313Z,5.3
2022-11-06T20:59:12.442Z,5.6
2022-11-06T21:01:14.611Z,4.7
2022-11-06T21:03:16.961Z,4.5
2022-11-06T21:05:22.074Z,5.7
2022-11-06T21:07:24.205Z,5.1
2022-11-06T21:09:26.339Z,4.9
2022-11-06T21:11:28.468Z,4.4
2022-11-06T21:13:30.590Z,5.5
2022-11-06T21:15:32.739Z,5.2
2022-11-06T21:17:34.852Z,5.7
2022-11-06T21:19:40.226Z,5.9
2022-11-06T21:21:42.384Z,5.7
2022-11-06T21:23:44.508Z,5.5
2022-11-06T21:24:47.181Z,6.6
2022-11-06T21:26:49.341Z,6.2
2022-11-06T21:28:51.465Z,5.2
2022-11-06T21:30:53.597Z,5.4
2022-11-06T21:32:58.980Z,4.9
2022-11-06T21:35:01.105Z,5
2022-11-06T21:37:03.359Z,5.8
2022-11-06T21:39:05.416Z,5
2022-11-06T21:41:07.562Z,6
2022-11-06T21:43:09.709Z,4.4
2022-11-06T21:45:14.851Z,5
2022-11-06T21:47:17.249Z,5.1
2022-11-06T21:49:19.394Z,4.1
2022-11-06T21:51:21.555Z,4.7
2022-11-06T21:53:23.690Z,4.1
2022-11-06T21:55:25.858Z,5
2022-11-06T21:57:28.001Z,5.5
2022-11-06T21:59:30.147Z,5.4
2022-11-06T22:01:35.673Z,4.4
2022-11-06T22:03:37.689Z,5.3
2022-11-06T22:05:39.827Z,5.3
2022-11-06T22:07:41.966Z,4.5
2022-11-06T22:09:44.116Z,4.6
2022-11-06T22:11:46.255Z,4.2
2022-11-06T22:13:48.415Z,3.7
2022-11-06T22:15:53.793Z,4.6
2022-11-06T22:17:55.956Z,4.3
2022-11-06T22:19:58.096Z,4.2
2022-11-06T22:21:00.794Z,4.5
2022-11-06T22:23:02.945Z,3.8
2022-11-06T22:25:05.084Z,4.3
2022-11-06T22:27:07.246Z,4
2022-11-06T22:29:12.646Z,3.7
2022-11-06T22:31:14.801Z,3.8
2022-11-06T22:33:17.170Z,4.8
2022-11-06T22:35:19.146Z,3.8
2022-11-06T22:37:21.196Z,4.9
2022-11-06T22:39:23.357Z,3.8
2022-11-06T22:41:25.527Z,4.2
2022-11-06T22:43:30.926Z,4.2
2022-11-06T22:45:33.058Z,3.9
2022-11-06T22:47:35.226Z,4.6
2022-11-06T22:49:37.356Z,4.1
2022-11-06T22:51:39.519Z,4.4
2022-11-06T22:53:41.599Z,3.9
2022-11-06T22:55:45.291Z,3
2022-11-06T22:57:50.660Z,3.8
2022-11-06T23:01:55.062Z,4
2022-11-06T23:03:57.134Z,3.7
2022-11-06T23:05:59.299Z,4.1
2022-11-06T23:08:01.431Z,4.6
2022-11-06T23:10:03.600Z,2.9
2022-11-06T23:12:08.970Z,3.6
2022-11-06T23:17:15.910Z,4.2
2022-11-06T23:19:18.061Z,4.8
2022-11-06T23:21:20.204Z,4.6
2022-11-06T23:23:22.280Z,4.5
2022-11-06T23:25:27.590Z,4.3
2022-11-06T23:27:29.768Z,3.8
2022-11-06T23:29:31.915Z,3.7
2022-11-06T23:31:34.058Z,3.3
2022-11-06T23:33:36.134Z,4.1
2022-11-06T23:35:38.297Z,3.3
2022-11-06T23:37:40.445Z,3.4
2022-11-06T23:39:45.842Z,3.7
2022-11-06T23:41:47.992Z,4.3
2022-11-06T23:43:50.134Z,3.7
2022-11-06T23:45:52.286Z,4
2022-11-06T23:49:56.603Z,3.5
2022-11-06T23:56:06.314Z,3
2022-11-06T23:58:08.497Z,3.9
